sensor_id;sensor_type;location;lat;lon;timestamp;pressure;altitude;pressure_sealevel;temperature;humidity
3544;BME280;1786;52.870;9.578;2023-05-01T00:01:09;101079.19;;;32.10;21.97
3544;BME280;1786;52.870;9.578;2023-05-01T00:03:36;101077.91;;;32.49;21.49
3544;BME280;1786;52.870;9.578;2023-05-01T00:06:03;101066.41;;;32.22;21.76
3544;BME280;1786;52.870;9.578;2023-05-01T00:08:31;101070.53;;;32.31;21.72
3544;BME280;1786;52.870;9.578;2023-05-01T00:11:04;101063.66;;;32.41;21.65
3544;BME280;1786;52.870;9.578;2023-05-01T00:13:31;101060.75;;;32.24;21.89
3544;BME280;1786;52.870;9.578;2023-05-01T00:15:57;101059.44;;;32.26;21.97
3544;BME280;1786;52.870;9.578;2023-05-01T00:18:24;101052.16;;;30.70;22.45
3544;BME280;1786;52.870;9.578;2023-05-01T00:20:51;101052.28;;;30.43;22.82
3544;BME280;1786;52.870;9.578;2023-05-01T00:23:17;101050.25;;;30.32;22.96
3544;BME280;1786;52.870;9.578;2023-05-01T00:25:44;101036.34;;;29.82;23.18
3544;BME280;1786;52.870;9.578;2023-05-01T00:28:11;101041.56;;;28.83;23.73
3544;BME280;1786;52.870;9.578;2023-05-01T00:30:38;101030.66;;;28.90;24.47
3544;BME280;1786;52.870;9.578;2023-05-01T00:33:06;101031.53;;;29.30;23.67
3544;BME280;1786;52.870;9.578;2023-05-01T00:35:33;101026.50;;;29.41;23.89
3544;BME280;1786;52.870;9.578;2023-05-01T00:38:01;101027.19;;;30.34;23.01
3544;BME280;1786;52.870;9.578;2023-05-01T00:40:27;101022.28;;;30.43;22.83
3544;BME280;1786;52.870;9.578;2023-05-01T00:42:55;101026.75;;;30.37;22.94
3544;BME280;1786;52.870;9.578;2023-05-01T00:45:22;101024.47;;;30.28;23.28
3544;BME280;1786;52.870;9.578;2023-05-01T00:47:48;101019.38;;;29.80;23.21
3544;BME280;1786;52.870;9.578;2023-05-01T00:50:16;101014.75;;;29.60;23.31
3544;BME280;1786;52.870;9.578;2023-05-01T00:52:44;101019.00;;;29.29;23.84
3544;BME280;1786;52.870;9.578;2023-05-01T00:55:12;101013.13;;;29.32;23.95
3544;BME280;1786;52.870;9.578;2023-05-01T00:57:39;101003.47;;;28.97;23.89
3544;BME280;1786;52.870;9.578;2023-05-01T01:00:06;101013.09;;;28.86;24.04
3544;BME280;1786;52.870;9.578;2023-05-01T01:02:33;101008.50;;;29.00;24.26
3544;BME280;1786;52.870;9.578;2023-05-01T01:05:00;100999.69;;;28.84;23.89
3544;BME280;1786;52.870;9.578;2023-05-01T01:07:39;101003.28;;;29.31;23.53
3544;BME280;1786;52.870;9.578;2023-05-01T01:10:15;100995.09;;;29.51;23.49
3544;BME280;1786;52.870;9.578;2023-05-01T01:13:01;101004.16;;;30.94;22.31
3544;BME280;1786;52.870;9.578;2023-05-01T01:15:34;100997.38;;;31.03;22.31
3544;BME280;1786;52.870;9.578;2023-05-01T01:18:15;101004.00;;;30.50;22.32
3544;BME280;1786;52.870;9.578;2023-05-01T01:20:54;100994.25;;;31.24;22.56
3544;BME280;1786;52.870;9.578;2023-05-01T01:24:02;100996.47;;;31.09;22.20
3544;BME280;1786;52.870;9.578;2023-05-01T01:29:31;100992.91;;;31.34;22.35
3544;BME280;1786;52.870;9.578;2023-05-01T01:35:09;100987.13;;;31.23;22.09
3544;BME280;1786;52.870;9.578;2023-05-01T01:38:42;100985.88;;;31.44;22.22
3544;BME280;1786;52.870;9.578;2023-05-01T01:40:59;100980.38;;;31.26;22.48
3544;BME280;1786;52.870;9.578;2023-05-01T01:43:31;100976.19;;;30.98;22.55
3544;BME280;1786;52.870;9.578;2023-05-01T01:46:05;100975.25;;;30.86;22.80
3544;BME280;1786;52.870;9.578;2023-05-01T01:48:37;100972.53;;;31.11;22.36
3544;BME280;1786;52.870;9.578;2023-05-01T01:51:13;100965.56;;;31.40;22.19
3544;BME280;1786;52.870;9.578;2023-05-01T01:53:45;100969.00;;;31.29;22.13
3544;BME280;1786;52.870;9.578;2023-05-01T01:56:14;100964.75;;;31.33;21.98
3544;BME280;1786;52.870;9.578;2023-05-01T01:58:44;100969.06;;;31.66;22.34
3544;BME280;1786;52.870;9.578;2023-05-01T02:01:13;100957.00;;;31.74;21.96
3544;BME280;1786;52.870;9.578;2023-05-01T02:03:42;100962.44;;;30.87;22.73
3544;BME280;1786;52.870;9.578;2023-05-01T02:06:11;100961.31;;;30.94;22.19
3544;BME280;1786;52.870;9.578;2023-05-01T02:08:41;100948.66;;;31.50;21.98
3544;BME280;1786;52.870;9.578;2023-05-01T02:11:09;100946.50;;;31.09;22.29
3544;BME280;1786;52.870;9.578;2023-05-01T02:13:38;100941.97;;;31.46;21.98
3544;BME280;1786;52.870;9.578;2023-05-01T02:16:06;100941.16;;;31.20;22.23
3544;BME280;1786;52.870;9.578;2023-05-01T02:18:35;100948.44;;;31.26;22.38
3544;BME280;1786;52.870;9.578;2023-05-01T02:21:03;100943.88;;;31.45;21.85
3544;BME280;1786;52.870;9.578;2023-05-01T02:23:34;100940.53;;;31.43;22.30
3544;BME280;1786;52.870;9.578;2023-05-01T02:26:02;100932.78;;;31.40;22.17
3544;BME280;1786;52.870;9.578;2023-05-01T02:28:30;100925.00;;;31.19;22.24
3544;BME280;1786;52.870;9.578;2023-05-01T02:30:57;100920.13;;;31.21;22.06
3544;BME280;1786;52.870;9.578;2023-05-01T02:33:26;100925.16;;;31.24;22.45
3544;BME280;1786;52.870;9.578;2023-05-01T02:35:53;100920.34;;;31.44;22.36
3544;BME280;1786;52.870;9.578;2023-05-01T02:38:21;100913.88;;;31.39;21.77
3544;BME280;1786;52.870;9.578;2023-05-01T02:40:51;100914.44;;;31.47;21.82
3544;BME280;1786;52.870;9.578;2023-05-01T02:43:20;100910.59;;;31.30;22.49
3544;BME280;1786;52.870;9.578;2023-05-01T02:45:50;100906.84;;;31.24;22.04
3544;BME280;1786;52.870;9.578;2023-05-01T02:48:20;100908.56;;;30.82;22.26
3544;BME280;1786;52.870;9.578;2023-05-01T02:50:49;100911.59;;;30.92;22.51
3544;BME280;1786;52.870;9.578;2023-05-01T02:53:17;100905.84;;;31.00;22.18
3544;BME280;1786;52.870;9.578;2023-05-01T02:55:50;100903.09;;;30.82;21.90
3544;BME280;1786;52.870;9.578;2023-05-01T02:58:18;100899.44;;;31.13;22.06
3544;BME280;1786;52.870;9.578;2023-05-01T03:00:47;100900.84;;;31.41;21.88
3544;BME280;1786;52.870;9.578;2023-05-01T03:03:15;100898.44;;;31.26;21.90
3544;BME280;1786;52.870;9.578;2023-05-01T03:05:42;100902.25;;;31.25;22.35
3544;BME280;1786;52.870;9.578;2023-05-01T03:08:08;100892.22;;;31.37;22.05
3544;BME280;1786;52.870;9.578;2023-05-01T03:10:38;100889.91;;;30.72;22.47
3544;BME280;1786;52.870;9.578;2023-05-01T03:13:05;100888.34;;;30.26;22.45
3544;BME280;1786;52.870;9.578;2023-05-01T03:15:32;100882.88;;;30.33;22.78
3544;BME280;1786;52.870;9.578;2023-05-01T03:17:58;100884.84;;;30.19;22.79
3544;BME280;1786;52.870;9.578;2023-05-01T03:20:25;100878.63;;;30.05;23.14
3544;BME280;1786;52.870;9.578;2023-05-01T03:22:53;100870.19;;;29.68;23.58
3544;BME280;1786;52.870;9.578;2023-05-01T03:25:19;100868.06;;;30.15;23.16
3544;BME280;1786;52.870;9.578;2023-05-01T03:27:46;100864.84;;;29.93;23.24
3544;BME280;1786;52.870;9.578;2023-05-01T03:30:14;100865.59;;;29.62;23.27
3544;BME280;1786;52.870;9.578;2023-05-01T03:32:41;100856.34;;;29.76;23.08
3544;BME280;1786;52.870;9.578;2023-05-01T03:35:15;100854.19;;;29.33;23.45
3544;BME280;1786;52.870;9.578;2023-05-01T03:37:43;100854.25;;;28.94;23.62
3544;BME280;1786;52.870;9.578;2023-05-01T03:40:13;100842.50;;;28.13;24.66
3544;BME280;1786;52.870;9.578;2023-05-01T03:42:58;100834.41;;;27.65;24.50
3544;BME280;1786;52.870;9.578;2023-05-01T03:45:25;100833.47;;;27.86;24.83
3544;BME280;1786;52.870;9.578;2023-05-01T03:47:53;100833.34;;;27.66;25.20
3544;BME280;1786;52.870;9.578;2023-05-01T03:50:20;100833.50;;;27.45;25.16
3544;BME280;1786;52.870;9.578;2023-05-01T03:52:49;100836.06;;;27.59;24.82
3544;BME280;1786;52.870;9.578;2023-05-01T03:55:15;100828.50;;;28.03;24.44
3544;BME280;1786;52.870;9.578;2023-05-01T03:57:45;100826.78;;;28.02;24.84
3544;BME280;1786;52.870;9.578;2023-05-01T04:00:13;100827.25;;;28.05;24.72
3544;BME280;1786;52.870;9.578;2023-05-01T04:02:44;100826.66;;;28.63;24.40
3544;BME280;1786;52.870;9.578;2023-05-01T04:05:16;100813.28;;;28.48;24.01
3544;BME280;1786;52.870;9.578;2023-05-01T04:07:48;100809.09;;;28.33;24.16
3544;BME280;1786;52.870;9.578;2023-05-01T04:10:15;100812.63;;;28.40;24.57
3544;BME280;1786;52.870;9.578;2023-05-01T04:12:52;100816.84;;;28.56;24.10
3544;BME280;1786;52.870;9.578;2023-05-01T04:15:18;100810.56;;;28.48;24.13
3544;BME280;1786;52.870;9.578;2023-05-01T04:17:46;100809.69;;;28.81;23.86
3544;BME280;1786;52.870;9.578;2023-05-01T04:20:14;100814.84;;;29.29;23.48
3544;BME280;1786;52.870;9.578;2023-05-01T04:22:42;100811.94;;;28.98;24.24
3544;BME280;1786;52.870;9.578;2023-05-01T04:25:09;100809.31;;;28.58;24.98
3544;BME280;1786;52.870;9.578;2023-05-01T04:27:36;100816.56;;;29.10;24.19
3544;BME280;1786;52.870;9.578;2023-05-01T04:30:04;100812.41;;;29.53;23.57
3544;BME280;1786;52.870;9.578;2023-05-01T04:32:31;100818.38;;;29.37;23.35
3544;BME280;1786;52.870;9.578;2023-05-01T04:34:58;100806.41;;;29.38;23.80
3544;BME280;1786;52.870;9.578;2023-05-01T04:37:26;100807.69;;;29.87;23.18
3544;BME280;1786;52.870;9.578;2023-05-01T04:39:52;100810.88;;;30.40;22.69
3544;BME280;1786;52.870;9.578;2023-05-01T04:42:22;100808.59;;;30.81;22.63
3544;BME280;1786;52.870;9.578;2023-05-01T04:44:49;100805.31;;;30.97;22.87
3544;BME280;1786;52.870;9.578;2023-05-01T04:47:16;100799.63;;;30.99;22.64
3544;BME280;1786;52.870;9.578;2023-05-01T04:49:43;100806.69;;;31.43;22.30
3544;BME280;1786;52.870;9.578;2023-05-01T04:52:10;100794.00;;;30.50;23.19
3544;BME280;1786;52.870;9.578;2023-05-01T04:54:48;100805.31;;;31.16;22.64
3544;BME280;1786;52.870;9.578;2023-05-01T04:57:15;100807.19;;;31.71;21.88
3544;BME280;1786;52.870;9.578;2023-05-01T04:59:42;100795.28;;;31.46;22.39
3544;BME280;1786;52.870;9.578;2023-05-01T05:02:09;100801.91;;;31.39;22.16
3544;BME280;1786;52.870;9.578;2023-05-01T05:04:36;100800.06;;;31.51;22.11
3544;BME280;1786;52.870;9.578;2023-05-01T05:07:03;100802.88;;;31.44;22.47
3544;BME280;1786;52.870;9.578;2023-05-01T05:09:50;100799.38;;;31.56;22.19
3544;BME280;1786;52.870;9.578;2023-05-01T05:12:16;100796.06;;;32.26;22.21
3544;BME280;1786;52.870;9.578;2023-05-01T05:14:43;100797.41;;;32.70;21.61
3544;BME280;1786;52.870;9.578;2023-05-01T05:17:11;100798.81;;;32.73;21.66
3544;BME280;1786;52.870;9.578;2023-05-01T05:19:38;100793.13;;;32.74;21.35
3544;BME280;1786;52.870;9.578;2023-05-01T05:22:04;100805.13;;;32.97;21.25
3544;BME280;1786;52.870;9.578;2023-05-01T05:24:38;100801.78;;;34.04;20.92
3544;BME280;1786;52.870;9.578;2023-05-01T05:27:06;100811.38;;;35.74;20.19
3544;BME280;1786;52.870;9.578;2023-05-01T05:29:34;100819.16;;;36.79;19.51
3544;BME280;1786;52.870;9.578;2023-05-01T05:32:01;100816.03;;;37.08;19.22
3544;BME280;1786;52.870;9.578;2023-05-01T05:34:28;100819.38;;;37.99;18.72
3544;BME280;1786;52.870;9.578;2023-05-01T05:36:55;100816.59;;;38.55;18.03
3544;BME280;1786;52.870;9.578;2023-05-01T05:39:24;100819.88;;;39.58;18.25
3544;BME280;1786;52.870;9.578;2023-05-01T05:41:51;100821.09;;;40.20;17.21
3544;BME280;1786;52.870;9.578;2023-05-01T05:44:19;100820.22;;;40.30;16.84
3544;BME280;1786;52.870;9.578;2023-05-01T05:46:46;100824.31;;;40.67;17.44
3544;BME280;1786;52.870;9.578;2023-05-01T05:49:20;100829.13;;;42.09;16.74
3544;BME280;1786;52.870;9.578;2023-05-01T05:51:46;100832.81;;;43.26;15.94
3544;BME280;1786;52.870;9.578;2023-05-01T05:54:14;100834.09;;;43.56;15.57
3544;BME280;1786;52.870;9.578;2023-05-01T05:56:42;100826.25;;;43.58;15.78
3544;BME280;1786;52.870;9.578;2023-05-01T05:59:09;100826.91;;;43.41;15.88
3544;BME280;1786;52.870;9.578;2023-05-01T06:01:36;100821.75;;;44.29;15.33
3544;BME280;1786;52.870;9.578;2023-05-01T06:04:03;100828.28;;;44.79;15.29
3544;BME280;1786;52.870;9.578;2023-05-01T06:06:33;100823.50;;;45.19;15.01
3544;BME280;1786;52.870;9.578;2023-05-01T06:09:00;100825.47;;;45.27;14.91
3544;BME280;1786;52.870;9.578;2023-05-01T06:11:28;100825.88;;;45.95;14.80
3544;BME280;1786;52.870;9.578;2023-05-01T06:13:55;100828.66;;;46.13;14.42
3544;BME280;1786;52.870;9.578;2023-05-01T06:16:23;100829.53;;;46.52;15.03
3544;BME280;1786;52.870;9.578;2023-05-01T06:18:51;100829.31;;;47.34;14.40
3544;BME280;1786;52.870;9.578;2023-05-01T06:21:17;100829.44;;;47.16;14.43
3544;BME280;1786;52.870;9.578;2023-05-01T06:23:44;100823.84;;;47.16;14.12
3544;BME280;1786;52.870;9.578;2023-05-01T06:26:40;100820.06;;;47.12;14.16
3544;BME280;1786;52.870;9.578;2023-05-01T06:29:07;100810.19;;;46.38;14.40
3544;BME280;1786;52.870;9.578;2023-05-01T06:31:34;100803.00;;;45.93;14.78
3544;BME280;1786;52.870;9.578;2023-05-01T06:34:00;100803.69;;;45.55;14.46
3544;BME280;1786;52.870;9.578;2023-05-01T06:36:35;100798.50;;;44.34;14.67
3544;BME280;1786;52.870;9.578;2023-05-01T06:39:02;100786.25;;;43.54;15.73
3544;BME280;1786;52.870;9.578;2023-05-01T06:41:30;100782.97;;;43.52;15.66
3544;BME280;1786;52.870;9.578;2023-05-01T06:43:58;100776.06;;;43.63;15.99
3544;BME280;1786;52.870;9.578;2023-05-01T06:46:24;100772.78;;;44.06;14.94
3544;BME280;1786;52.870;9.578;2023-05-01T06:48:51;100777.03;;;44.35;15.74
3544;BME280;1786;52.870;9.578;2023-05-01T06:51:18;100773.50;;;44.83;15.48
3544;BME280;1786;52.870;9.578;2023-05-01T06:53:44;100777.88;;;45.50;14.93
3544;BME280;1786;52.870;9.578;2023-05-01T06:56:11;100778.56;;;45.47;14.73
3544;BME280;1786;52.870;9.578;2023-05-01T06:58:37;100779.50;;;45.51;14.86
3544;BME280;1786;52.870;9.578;2023-05-01T07:01:04;100773.56;;;44.29;15.42
3544;BME280;1786;52.870;9.578;2023-05-01T07:03:31;100766.63;;;44.49;15.12
3544;BME280;1786;52.870;9.578;2023-05-01T07:05:57;100766.09;;;44.78;15.26
3544;BME280;1786;52.870;9.578;2023-05-01T07:08:24;100753.44;;;42.92;15.53
3544;BME280;1786;52.870;9.578;2023-05-01T07:10:50;100736.91;;;41.61;16.20
3544;BME280;1786;52.870;9.578;2023-05-01T07:13:17;100737.16;;;41.40;16.35
3544;BME280;1786;52.870;9.578;2023-05-01T07:15:44;100734.84;;;41.66;16.65
3544;BME280;1786;52.870;9.578;2023-05-01T07:18:11;100723.94;;;39.88;17.78
3544;BME280;1786;52.870;9.578;2023-05-01T07:20:38;100720.31;;;41.18;16.85
3544;BME280;1786;52.870;9.578;2023-05-01T07:23:04;100722.72;;;42.55;16.44
3544;BME280;1786;52.870;9.578;2023-05-01T07:25:33;100722.41;;;41.45;16.99
3544;BME280;1786;52.870;9.578;2023-05-01T07:27:59;100731.94;;;42.09;16.94
3544;BME280;1786;52.870;9.578;2023-05-01T07:30:28;100721.72;;;41.53;16.65
3544;BME280;1786;52.870;9.578;2023-05-01T07:32:56;100727.16;;;41.01;17.34
3544;BME280;1786;52.870;9.578;2023-05-01T07:35:25;100724.13;;;41.92;16.54
3544;BME280;1786;52.870;9.578;2023-05-01T07:37:53;100714.88;;;39.82;17.23
3544;BME280;1786;52.870;9.578;2023-05-01T07:40:20;100710.09;;;39.88;17.78
3544;BME280;1786;52.870;9.578;2023-05-01T07:42:46;100712.03;;;40.94;17.02
3544;BME280;1786;52.870;9.578;2023-05-01T07:45:14;100717.06;;;41.67;16.83
3544;BME280;1786;52.870;9.578;2023-05-01T07:47:40;100713.94;;;41.36;16.78
3544;BME280;1786;52.870;9.578;2023-05-01T07:50:11;100710.25;;;41.03;17.25
3544;BME280;1786;52.870;9.578;2023-05-01T07:52:38;100711.91;;;40.56;17.71
3544;BME280;1786;52.870;9.578;2023-05-01T07:55:06;100706.63;;;40.35;17.00
3544;BME280;1786;52.870;9.578;2023-05-01T07:57:34;100701.41;;;39.21;17.78
3544;BME280;1786;52.870;9.578;2023-05-01T08:00:01;100697.91;;;40.18;17.68
3544;BME280;1786;52.870;9.578;2023-05-01T08:02:39;100700.41;;;39.90;17.22
3544;BME280;1786;52.870;9.578;2023-05-01T08:05:07;100699.09;;;41.46;16.81
3544;BME280;1786;52.870;9.578;2023-05-01T08:07:34;100694.91;;;40.68;17.74
3544;BME280;1786;52.870;9.578;2023-05-01T08:10:01;100687.66;;;40.48;17.48
3544;BME280;1786;52.870;9.578;2023-05-01T08:12:28;100694.44;;;39.73;17.90
3544;BME280;1786;52.870;9.578;2023-05-01T08:14:56;100711.78;;;41.14;17.44
3544;BME280;1786;52.870;9.578;2023-05-01T08:17:22;100698.50;;;39.86;17.40
3544;BME280;1786;52.870;9.578;2023-05-01T08:19:49;100692.50;;;39.39;18.14
3544;BME280;1786;52.870;9.578;2023-05-01T08:22:16;100699.53;;;39.95;18.27
3544;BME280;1786;52.870;9.578;2023-05-01T08:24:42;100693.22;;;40.91;17.87
3544;BME280;1786;52.870;9.578;2023-05-01T08:27:09;100704.91;;;42.29;16.45
3544;BME280;1786;52.870;9.578;2023-05-01T08:29:36;100711.22;;;41.69;16.28
3544;BME280;1786;52.870;9.578;2023-05-01T08:32:02;100698.59;;;42.23;17.09
3544;BME280;1786;52.870;9.578;2023-05-01T08:34:29;100693.75;;;40.44;17.46
3544;BME280;1786;52.870;9.578;2023-05-01T08:36:57;100699.25;;;41.36;16.84
3544;BME280;1786;52.870;9.578;2023-05-01T08:39:24;100692.28;;;40.28;17.70
3544;BME280;1786;52.870;9.578;2023-05-01T08:41:51;100680.53;;;39.04;18.25
3544;BME280;1786;52.870;9.578;2023-05-01T08:44:19;100674.34;;;38.58;18.04
3544;BME280;1786;52.870;9.578;2023-05-01T08:47:09;100676.16;;;38.93;18.91
3544;BME280;1786;52.870;9.578;2023-05-01T08:49:39;100677.94;;;40.21;17.94
3544;BME280;1786;52.870;9.578;2023-05-01T08:52:07;100679.13;;;39.86;17.57
3544;BME280;1786;52.870;9.578;2023-05-01T08:54:36;100677.69;;;39.14;18.45
3544;BME280;1786;52.870;9.578;2023-05-01T08:57:05;100678.81;;;40.45;18.08
3544;BME280;1786;52.870;9.578;2023-05-01T08:59:35;100674.75;;;39.45;18.16
3544;BME280;1786;52.870;9.578;2023-05-01T09:02:05;100674.63;;;39.60;17.96
3544;BME280;1786;52.870;9.578;2023-05-01T09:04:37;100665.94;;;39.38;18.69
3544;BME280;1786;52.870;9.578;2023-05-01T09:07:05;100668.44;;;39.40;18.78
3544;BME280;1786;52.870;9.578;2023-05-01T09:09:32;100661.81;;;40.76;17.45
3544;BME280;1786;52.870;9.578;2023-05-01T09:12:21;100677.78;;;40.84;17.92
3544;BME280;1786;52.870;9.578;2023-05-01T09:14:50;100665.75;;;41.13;17.04
3544;BME280;1786;52.870;9.578;2023-05-01T09:17:17;100666.34;;;40.67;18.31
3544;BME280;1786;52.870;9.578;2023-05-01T09:19:46;100656.97;;;40.15;17.82
3544;BME280;1786;52.870;9.578;2023-05-01T09:22:12;100663.84;;;41.46;17.03
3544;BME280;1786;52.870;9.578;2023-05-01T09:24:39;100660.34;;;42.06;16.73
3544;BME280;1786;52.870;9.578;2023-05-01T09:27:07;100666.66;;;43.04;16.71
3544;BME280;1786;52.870;9.578;2023-05-01T09:29:40;100667.09;;;43.56;15.73
3544;BME280;1786;52.870;9.578;2023-05-01T09:32:23;100665.69;;;42.17;16.50
3544;BME280;1786;52.870;9.578;2023-05-01T09:34:51;100649.94;;;42.67;17.35
3544;BME280;1786;52.870;9.578;2023-05-01T09:37:32;100661.03;;;43.31;17.04
3544;BME280;1786;52.870;9.578;2023-05-01T09:42:34;100647.19;;;42.53;16.30
3544;BME280;1786;52.870;9.578;2023-05-01T09:45:05;100649.56;;;41.86;16.60
3544;BME280;1786;52.870;9.578;2023-05-01T09:47:32;100639.97;;;40.51;17.50
3544;BME280;1786;52.870;9.578;2023-05-01T09:49:59;100638.72;;;42.03;17.02
3544;BME280;1786;52.870;9.578;2023-05-01T09:52:29;100639.16;;;43.38;16.50
3544;BME280;1786;52.870;9.578;2023-05-01T09:55:17;100640.19;;;41.68;16.98
3544;BME280;1786;52.870;9.578;2023-05-01T09:57:45;100633.16;;;42.03;18.04
3544;BME280;1786;52.870;9.578;2023-05-01T10:00:13;100632.56;;;42.20;17.14
3544;BME280;1786;52.870;9.578;2023-05-01T10:02:45;100626.75;;;42.86;16.28
3544;BME280;1786;52.870;9.578;2023-05-01T10:05:13;100625.72;;;42.82;16.95
3544;BME280;1786;52.870;9.578;2023-05-01T10:08:00;100626.16;;;43.56;16.62
3544;BME280;1786;52.870;9.578;2023-05-01T10:10:29;100632.25;;;43.90;16.53
3544;BME280;1786;52.870;9.578;2023-05-01T10:15:43;100616.41;;;43.00;17.01
3544;BME280;1786;52.870;9.578;2023-05-01T10:18:13;100602.72;;;42.26;17.00
3544;BME280;1786;52.870;9.578;2023-05-01T10:20:40;100610.59;;;41.44;17.16
3544;BME280;1786;52.870;9.578;2023-05-01T10:23:07;100607.28;;;41.61;17.61
3544;BME280;1786;52.870;9.578;2023-05-01T10:25:35;100589.66;;;42.12;16.73
3544;BME280;1786;52.870;9.578;2023-05-01T10:28:02;100596.28;;;41.56;16.92
3544;BME280;1786;52.870;9.578;2023-05-01T10:30:34;100594.25;;;41.76;17.47
3544;BME280;1786;52.870;9.578;2023-05-01T10:33:01;100600.28;;;42.24;17.84
3544;BME280;1786;52.870;9.578;2023-05-01T10:35:31;100595.66;;;41.26;17.24
3544;BME280;1786;52.870;9.578;2023-05-01T10:38:01;100588.09;;;40.08;17.74
3544;BME280;1786;52.870;9.578;2023-05-01T10:40:47;100593.28;;;40.82;17.99
3544;BME280;1786;52.870;9.578;2023-05-01T10:43:25;100586.72;;;41.29;17.21
3544;BME280;1786;52.870;9.578;2023-05-01T10:51:06;100567.34;;;42.18;17.03
3544;BME280;1786;52.870;9.578;2023-05-01T10:53:35;100580.28;;;43.45;17.10
3544;BME280;1786;52.870;9.578;2023-05-01T10:56:03;100576.72;;;44.33;16.71
3544;BME280;1786;52.870;9.578;2023-05-01T11:01:38;100577.09;;;45.19;16.12
3544;BME280;1786;52.870;9.578;2023-05-01T11:12:47;100572.13;;;46.27;15.70
3544;BME280;1786;52.870;9.578;2023-05-01T11:15:02;100563.34;;;47.00;15.13
3544;BME280;1786;52.870;9.578;2023-05-01T11:20:09;100565.31;;;47.21;15.61
3544;BME280;1786;52.870;9.578;2023-05-01T11:22:38;100565.53;;;47.61;15.43
3544;BME280;1786;52.870;9.578;2023-05-01T11:25:24;100556.91;;;46.88;15.42
3544;BME280;1786;52.870;9.578;2023-05-01T11:27:58;100558.25;;;46.39;16.12
3544;BME280;1786;52.870;9.578;2023-05-01T11:30:38;100555.94;;;46.12;15.82
3544;BME280;1786;52.870;9.578;2023-05-01T11:33:06;100554.84;;;46.55;15.76
3544;BME280;1786;52.870;9.578;2023-05-01T11:35:37;100552.41;;;47.41;15.47
3544;BME280;1786;52.870;9.578;2023-05-01T11:38:03;100560.31;;;47.84;14.96
3544;BME280;1786;52.870;9.578;2023-05-01T11:40:33;100547.00;;;47.23;15.17
3544;BME280;1786;52.870;9.578;2023-05-01T11:43:04;100551.50;;;47.49;15.23
3544;BME280;1786;52.870;9.578;2023-05-01T11:45:32;100536.25;;;46.29;15.91
3544;BME280;1786;52.870;9.578;2023-05-01T11:47:59;100532.34;;;44.71;16.89
3544;BME280;1786;52.870;9.578;2023-05-01T11:50:31;100526.03;;;44.22;16.40
3544;BME280;1786;52.870;9.578;2023-05-01T11:52:59;100538.13;;;45.48;16.61
3544;BME280;1786;52.870;9.578;2023-05-01T11:55:33;100532.94;;;46.57;15.81
3544;BME280;1786;52.870;9.578;2023-05-01T11:58:00;100532.13;;;46.77;15.76
3544;BME280;1786;52.870;9.578;2023-05-01T12:00:29;100539.47;;;47.03;15.70
3544;BME280;1786;52.870;9.578;2023-05-01T12:03:01;100540.19;;;47.70;15.17
3544;BME280;1786;52.870;9.578;2023-05-01T12:05:30;100543.13;;;47.61;14.73
3544;BME280;1786;52.870;9.578;2023-05-01T12:08:16;100541.88;;;48.48;14.88
3544;BME280;1786;52.870;9.578;2023-05-01T12:10:50;100536.97;;;48.86;14.56
3544;BME280;1786;52.870;9.578;2023-05-01T12:13:36;100540.47;;;48.67;15.11
3544;BME280;1786;52.870;9.578;2023-05-01T12:16:04;100540.44;;;48.26;15.40
3544;BME280;1786;52.870;9.578;2023-05-01T12:18:31;100537.25;;;48.16;14.97
3544;BME280;1786;52.870;9.578;2023-05-01T12:20:58;100527.31;;;48.30;15.04
3544;BME280;1786;52.870;9.578;2023-05-01T12:23:35;100530.34;;;48.78;14.79
3544;BME280;1786;52.870;9.578;2023-05-01T12:26:23;100529.47;;;49.34;14.31
3544;BME280;1786;52.870;9.578;2023-05-01T12:29:01;100513.09;;;48.23;14.25
3544;BME280;1786;52.870;9.578;2023-05-01T12:31:28;100517.50;;;48.37;14.72
3544;BME280;1786;52.870;9.578;2023-05-01T12:33:57;100515.72;;;48.57;15.31
3544;BME280;1786;52.870;9.578;2023-05-01T12:36:26;100515.09;;;48.91;14.85
3544;BME280;1786;52.870;9.578;2023-05-01T12:39:05;100517.03;;;49.19;14.58
3544;BME280;1786;52.870;9.578;2023-05-01T12:41:39;100517.81;;;49.48;14.66
3544;BME280;1786;52.870;9.578;2023-05-01T12:49:19;100513.41;;;49.03;15.23
3544;BME280;1786;52.870;9.578;2023-05-01T12:51:51;100506.47;;;49.44;13.91
3544;BME280;1786;52.870;9.578;2023-05-01T12:54:22;100499.09;;;49.08;14.75
3544;BME280;1786;52.870;9.578;2023-05-01T12:56:50;100495.38;;;47.58;14.44
3544;BME280;1786;52.870;9.578;2023-05-01T12:59:24;100485.88;;;47.13;15.75
3544;BME280;1786;52.870;9.578;2023-05-01T13:02:04;100492.66;;;48.10;15.52
3544;BME280;1786;52.870;9.578;2023-05-01T13:04:31;100485.53;;;47.27;16.21
3544;BME280;1786;52.870;9.578;2023-05-01T13:06:58;100486.84;;;45.91;15.76
3544;BME280;1786;52.870;9.578;2023-05-01T13:09:26;100484.47;;;46.53;15.57
3544;BME280;1786;52.870;9.578;2023-05-01T13:12:04;100479.84;;;47.48;15.45
3544;BME280;1786;52.870;9.578;2023-05-01T13:14:35;100475.53;;;45.67;16.66
3544;BME280;1786;52.870;9.578;2023-05-01T13:17:07;100482.56;;;45.26;16.22
3544;BME280;1786;52.870;9.578;2023-05-01T13:19:35;100471.25;;;46.20;15.83
3544;BME280;1786;52.870;9.578;2023-05-01T13:22:04;100463.56;;;45.87;16.52
3544;BME280;1786;52.870;9.578;2023-05-01T13:24:37;100460.97;;;44.70;16.78
3544;BME280;1786;52.870;9.578;2023-05-01T13:27:07;100457.31;;;45.61;15.86
3544;BME280;1786;52.870;9.578;2023-05-01T13:29:34;100464.66;;;46.79;15.63
3544;BME280;1786;52.870;9.578;2023-05-01T13:32:05;100475.53;;;47.63;15.11
3544;BME280;1786;52.870;9.578;2023-05-01T13:34:35;100468.22;;;47.58;14.72
3544;BME280;1786;52.870;9.578;2023-05-01T13:37:03;100474.03;;;47.90;15.35
3544;BME280;1786;52.870;9.578;2023-05-01T13:39:29;100469.56;;;47.28;14.89
3544;BME280;1786;52.870;9.578;2023-05-01T13:41:56;100471.03;;;48.23;15.01
3544;BME280;1786;52.870;9.578;2023-05-01T13:44:22;100469.69;;;47.68;15.03
3544;BME280;1786;52.870;9.578;2023-05-01T13:46:49;100461.19;;;47.52;15.01
3544;BME280;1786;52.870;9.578;2023-05-01T13:49:19;100470.03;;;47.42;15.37
3544;BME280;1786;52.870;9.578;2023-05-01T13:51:47;100462.47;;;46.84;15.40
3544;BME280;1786;52.870;9.578;2023-05-01T13:54:14;100459.47;;;46.69;15.47
3544;BME280;1786;52.870;9.578;2023-05-01T13:56:42;100454.66;;;46.57;15.13
3544;BME280;1786;52.870;9.578;2023-05-01T13:59:08;100459.75;;;47.21;15.39